Terminal Aerodrome Forecast
Issued by NWS King Salmon, AK

Home | Current Version | Previous Version | Text Only | Print | Product List | Glossary On
Versions: 1 2 3 4 5 6 7 8 9 10 11 12 13 14 15 16 17 18 19 20 21 22 23 24 25 26 27 28 29 30 31 32 33 34 35 36 37 38
260
FTAK31 PANC 031747
TAFAKN
TAF
PAKN 031747Z 0318/0418 10005KT P6SM FEW002 SCT040 BKN060
      TEMPO 0318/0319 09003KT 3SM BR BKN002
     FM040000 14012G17KT P6SM -SHRA BKN025 OVC050
     FM040500 14008KT P6SM -SHRA BKN025 OVC050=

USA.gov is the U.S. government's official web portal to all federal, state and local government web resources and services.